sensor_id;sensor_type;location;lat;lon;timestamp;P1;durP1;ratioP1;P2;durP2;ratioP2
50319;SDS011;36226;53.464;9.852;2022-09-12T00:02:20;1.92;;;1.80;;
50319;SDS011;36226;53.464;9.852;2022-09-12T00:04:45;3.67;;;2.35;;
50319;SDS011;36226;53.464;9.852;2022-09-12T00:07:11;4.20;;;1.83;;
50319;SDS011;36226;53.464;9.852;2022-09-12T00:09:36;3.70;;;2.05;;
50319;SDS011;36226;53.464;9.852;2022-09-12T00:12:02;2.38;;;1.95;;
50319;SDS011;36226;53.464;9.852;2022-09-12T00:14:28;2.00;;;1.65;;
50319;SDS011;36226;53.464;9.852;2022-09-12T00:16:56;2.20;;;1.80;;
50319;SDS011;36226;53.464;9.852;2022-09-12T00:19:22;2.47;;;1.92;;
50319;SDS011;36226;53.464;9.852;2022-09-12T00:21:48;2.55;;;2.00;;
50319;SDS011;36226;53.464;9.852;2022-09-12T00:24:13;3.40;;;1.88;;
50319;SDS011;36226;53.464;9.852;2022-09-12T00:26:39;2.10;;;1.90;;
50319;SDS011;36226;53.464;9.852;2022-09-12T00:29:04;2.03;;;1.63;;
50319;SDS011;36226;53.464;9.852;2022-09-12T00:31:29;1.80;;;1.50;;
50319;SDS011;36226;53.464;9.852;2022-09-12T00:33:56;2.67;;;1.52;;
50319;SDS011;36226;53.464;9.852;2022-09-12T00:36:23;1.98;;;1.55;;
50319;SDS011;36226;53.464;9.852;2022-09-12T00:38:51;1.92;;;1.40;;
50319;SDS011;36226;53.464;9.852;2022-09-12T00:41:19;3.08;;;1.70;;
50319;SDS011;36226;53.464;9.852;2022-09-12T00:43:51;1.98;;;1.80;;
50319;SDS011;36226;53.464;9.852;2022-09-12T00:51:45;2.67;;;1.80;;
50319;SDS011;36226;53.464;9.852;2022-09-12T00:54:14;1.70;;;1.60;;
50319;SDS011;36226;53.464;9.852;2022-09-12T00:56:43;2.53;;;1.50;;
50319;SDS011;36226;53.464;9.852;2022-09-12T00:59:11;1.88;;;1.60;;
50319;SDS011;36226;53.464;9.852;2022-09-12T01:01:48;2.05;;;1.73;;
50319;SDS011;36226;53.464;9.852;2022-09-12T01:04:15;2.08;;;1.70;;
50319;SDS011;36226;53.464;9.852;2022-09-12T01:06:42;2.13;;;1.40;;
50319;SDS011;36226;53.464;9.852;2022-09-12T01:09:08;1.80;;;1.45;;
50319;SDS011;36226;53.464;9.852;2022-09-12T01:11:37;2.15;;;1.70;;
50319;SDS011;36226;53.464;9.852;2022-09-12T01:14:03;1.77;;;1.50;;
50319;SDS011;36226;53.464;9.852;2022-09-12T01:16:29;3.50;;;1.63;;
50319;SDS011;36226;53.464;9.852;2022-09-12T01:19:24;4.18;;;1.48;;
50319;SDS011;36226;53.464;9.852;2022-09-12T01:27:39;5.45;;;1.70;;
50319;SDS011;36226;53.464;9.852;2022-09-12T01:33:03;1.90;;;1.58;;
50319;SDS011;36226;53.464;9.852;2022-09-12T01:35:31;2.65;;;1.60;;
50319;SDS011;36226;53.464;9.852;2022-09-12T01:46:46;1.90;;;1.70;;
50319;SDS011;36226;53.464;9.852;2022-09-12T01:49:16;1.80;;;1.48;;
50319;SDS011;36226;53.464;9.852;2022-09-12T01:51:50;2.63;;;1.70;;
50319;SDS011;36226;53.464;9.852;2022-09-12T01:54:25;3.05;;;1.60;;
50319;SDS011;36226;53.464;9.852;2022-09-12T01:56:54;1.60;;;1.50;;
50319;SDS011;36226;53.464;9.852;2022-09-12T01:59:25;1.73;;;1.63;;
50319;SDS011;36226;53.464;9.852;2022-09-12T02:01:55;1.75;;;1.60;;
50319;SDS011;36226;53.464;9.852;2022-09-12T02:04:25;2.17;;;1.48;;
50319;SDS011;36226;53.464;9.852;2022-09-12T02:06:54;1.77;;;1.48;;
50319;SDS011;36226;53.464;9.852;2022-09-12T02:09:26;1.77;;;1.58;;
50319;SDS011;36226;53.464;9.852;2022-09-12T02:12:00;1.60;;;1.30;;
50319;SDS011;36226;53.464;9.852;2022-09-12T02:14:30;2.30;;;1.30;;
50319;SDS011;36226;53.464;9.852;2022-09-12T02:16:57;1.75;;;1.30;;
50319;SDS011;36226;53.464;9.852;2022-09-12T02:19:42;2.55;;;1.58;;
50319;SDS011;36226;53.464;9.852;2022-09-12T02:22:11;2.08;;;1.50;;
50319;SDS011;36226;53.464;9.852;2022-09-12T02:24:41;2.17;;;1.33;;
50319;SDS011;36226;53.464;9.852;2022-09-12T02:27:13;1.90;;;1.27;;
50319;SDS011;36226;53.464;9.852;2022-09-12T02:29:42;1.45;;;1.30;;
50319;SDS011;36226;53.464;9.852;2022-09-12T02:32:18;3.45;;;1.38;;
50319;SDS011;36226;53.464;9.852;2022-09-12T02:40:24;2.95;;;1.58;;
50319;SDS011;36226;53.464;9.852;2022-09-12T02:42:50;2.58;;;1.25;;
50319;SDS011;36226;53.464;9.852;2022-09-12T02:45:16;2.20;;;1.40;;
50319;SDS011;36226;53.464;9.852;2022-09-12T02:47:43;1.25;;;1.15;;
50319;SDS011;36226;53.464;9.852;2022-09-12T02:50:11;3.65;;;1.55;;
50319;SDS011;36226;53.464;9.852;2022-09-12T02:52:37;1.50;;;1.25;;
50319;SDS011;36226;53.464;9.852;2022-09-12T02:55:04;2.20;;;1.10;;
50319;SDS011;36226;53.464;9.852;2022-09-12T02:57:30;2.05;;;1.33;;
50319;SDS011;36226;53.464;9.852;2022-09-12T02:59:57;4.68;;;1.38;;
50319;SDS011;36226;53.464;9.852;2022-09-12T03:05:28;2.28;;;1.30;;
50319;SDS011;36226;53.464;9.852;2022-09-12T03:16:46;1.88;;;1.50;;
50319;SDS011;36226;53.464;9.852;2022-09-12T03:24:41;2.15;;;1.85;;
50319;SDS011;36226;53.464;9.852;2022-09-12T03:27:21;1.80;;;1.50;;
50319;SDS011;36226;53.464;9.852;2022-09-12T03:29:55;1.63;;;1.45;;
50319;SDS011;36226;53.464;9.852;2022-09-12T03:35:05;2.30;;;1.42;;
50319;SDS011;36226;53.464;9.852;2022-09-12T03:37:31;2.10;;;1.50;;
50319;SDS011;36226;53.464;9.852;2022-09-12T03:39:56;3.35;;;1.58;;
50319;SDS011;36226;53.464;9.852;2022-09-12T03:42:22;1.80;;;1.30;;
50319;SDS011;36226;53.464;9.852;2022-09-12T03:44:47;1.52;;;1.40;;
50319;SDS011;36226;53.464;9.852;2022-09-12T03:47:12;1.73;;;1.35;;
50319;SDS011;36226;53.464;9.852;2022-09-12T03:49:38;1.63;;;1.40;;
50319;SDS011;36226;53.464;9.852;2022-09-12T03:52:03;3.22;;;1.60;;
50319;SDS011;36226;53.464;9.852;2022-09-12T03:54:29;1.98;;;1.50;;
50319;SDS011;36226;53.464;9.852;2022-09-12T03:56:54;3.20;;;1.40;;
50319;SDS011;36226;53.464;9.852;2022-09-12T03:59:19;4.25;;;1.50;;
50319;SDS011;36226;53.464;9.852;2022-09-12T04:01:44;1.63;;;1.52;;
50319;SDS011;36226;53.464;9.852;2022-09-12T04:04:10;1.80;;;1.63;;
50319;SDS011;36226;53.464;9.852;2022-09-12T04:06:35;1.65;;;1.55;;
50319;SDS011;36226;53.464;9.852;2022-09-12T04:09:00;3.15;;;1.50;;
50319;SDS011;36226;53.464;9.852;2022-09-12T04:11:26;2.35;;;1.60;;
50319;SDS011;36226;53.464;9.852;2022-09-12T04:13:51;4.20;;;1.70;;
50319;SDS011;36226;53.464;9.852;2022-09-12T04:16:20;1.85;;;1.70;;
50319;SDS011;36226;53.464;9.852;2022-09-12T04:18:48;2.63;;;1.60;;
50319;SDS011;36226;53.464;9.852;2022-09-12T04:21:17;2.97;;;1.70;;
50319;SDS011;36226;53.464;9.852;2022-09-12T04:23:43;3.40;;;1.70;;
50319;SDS011;36226;53.464;9.852;2022-09-12T04:26:09;1.65;;;1.50;;
50319;SDS011;36226;53.464;9.852;2022-09-12T04:28:35;3.50;;;1.58;;
50319;SDS011;36226;53.464;9.852;2022-09-12T04:31:06;1.77;;;1.35;;
50319;SDS011;36226;53.464;9.852;2022-09-12T04:33:33;2.13;;;1.60;;
50319;SDS011;36226;53.464;9.852;2022-09-12T04:36:12;3.13;;;1.67;;
50319;SDS011;36226;53.464;9.852;2022-09-12T04:38:40;3.72;;;2.75;;
50319;SDS011;36226;53.464;9.852;2022-09-12T04:41:12;5.28;;;3.42;;
50319;SDS011;36226;53.464;9.852;2022-09-12T04:43:39;2.95;;;2.70;;
50319;SDS011;36226;53.464;9.852;2022-09-12T04:46:06;4.10;;;3.70;;
50319;SDS011;36226;53.464;9.852;2022-09-12T04:48:32;3.85;;;3.28;;
50319;SDS011;36226;53.464;9.852;2022-09-12T04:51:08;3.35;;;2.30;;
50319;SDS011;36226;53.464;9.852;2022-09-12T04:53:39;2.75;;;1.80;;
50319;SDS011;36226;53.464;9.852;2022-09-12T04:56:05;1.98;;;1.65;;
50319;SDS011;36226;53.464;9.852;2022-09-12T04:58:32;1.70;;;1.60;;
50319;SDS011;36226;53.464;9.852;2022-09-12T05:01:08;2.65;;;1.80;;
50319;SDS011;36226;53.464;9.852;2022-09-12T05:03:34;1.73;;;1.52;;
50319;SDS011;36226;53.464;9.852;2022-09-12T05:06:03;3.15;;;1.60;;
50319;SDS011;36226;53.464;9.852;2022-09-12T05:08:29;1.65;;;1.50;;
50319;SDS011;36226;53.464;9.852;2022-09-12T05:10:54;1.60;;;1.42;;
50319;SDS011;36226;53.464;9.852;2022-09-12T05:13:19;1.75;;;1.40;;
50319;SDS011;36226;53.464;9.852;2022-09-12T05:15:58;1.77;;;1.50;;
50319;SDS011;36226;53.464;9.852;2022-09-12T05:18:25;1.67;;;1.55;;
50319;SDS011;36226;53.464;9.852;2022-09-12T05:20:51;2.80;;;1.60;;
50319;SDS011;36226;53.464;9.852;2022-09-12T05:23:19;4.78;;;1.80;;
50319;SDS011;36226;53.464;9.852;2022-09-12T05:25:51;2.40;;;1.83;;
50319;SDS011;36226;53.464;9.852;2022-09-12T05:28:17;3.55;;;2.28;;
50319;SDS011;36226;53.464;9.852;2022-09-12T05:30:44;3.58;;;2.22;;
50319;SDS011;36226;53.464;9.852;2022-09-12T05:33:09;3.03;;;2.42;;
50319;SDS011;36226;53.464;9.852;2022-09-12T05:35:35;3.40;;;2.50;;
50319;SDS011;36226;53.464;9.852;2022-09-12T05:38:02;4.32;;;2.50;;
50319;SDS011;36226;53.464;9.852;2022-09-12T05:40:28;3.15;;;2.30;;
50319;SDS011;36226;53.464;9.852;2022-09-12T05:42:54;2.28;;;2.08;;
50319;SDS011;36226;53.464;9.852;2022-09-12T05:45:19;2.95;;;2.22;;
50319;SDS011;36226;53.464;9.852;2022-09-12T05:47:45;2.63;;;2.20;;
50319;SDS011;36226;53.464;9.852;2022-09-12T05:50:11;2.78;;;2.08;;
50319;SDS011;36226;53.464;9.852;2022-09-12T05:52:36;2.05;;;1.73;;
50319;SDS011;36226;53.464;9.852;2022-09-12T05:55:02;2.22;;;1.88;;
50319;SDS011;36226;53.464;9.852;2022-09-12T05:57:28;3.53;;;2.10;;
50319;SDS011;36226;53.464;9.852;2022-09-12T05:59:53;2.53;;;2.28;;
50319;SDS011;36226;53.464;9.852;2022-09-12T06:02:19;2.60;;;2.33;;
50319;SDS011;36226;53.464;9.852;2022-09-12T06:04:44;3.67;;;2.30;;
50319;SDS011;36226;53.464;9.852;2022-09-12T06:07:10;5.10;;;2.30;;
50319;SDS011;36226;53.464;9.852;2022-09-12T06:09:35;3.40;;;2.10;;
50319;SDS011;36226;53.464;9.852;2022-09-12T06:12:01;9.00;;;2.67;;
50319;SDS011;36226;53.464;9.852;2022-09-12T06:14:26;5.60;;;2.53;;
50319;SDS011;36226;53.464;9.852;2022-09-12T06:16:51;5.13;;;2.13;;
50319;SDS011;36226;53.464;9.852;2022-09-12T06:19:18;3.10;;;2.47;;
50319;SDS011;36226;53.464;9.852;2022-09-12T06:21:44;4.88;;;2.65;;
50319;SDS011;36226;53.464;9.852;2022-09-12T06:24:11;3.83;;;3.00;;
50319;SDS011;36226;53.464;9.852;2022-09-12T06:26:36;5.53;;;2.58;;
50319;SDS011;36226;53.464;9.852;2022-09-12T06:29:02;3.55;;;3.13;;
50319;SDS011;36226;53.464;9.852;2022-09-12T06:31:29;6.03;;;3.03;;
50319;SDS011;36226;53.464;9.852;2022-09-12T06:33:59;4.75;;;3.17;;
50319;SDS011;36226;53.464;9.852;2022-09-12T06:36:26;4.68;;;3.05;;
50319;SDS011;36226;53.464;9.852;2022-09-12T06:38:53;3.83;;;3.25;;
50319;SDS011;36226;53.464;9.852;2022-09-12T06:41:21;4.78;;;3.00;;
50319;SDS011;36226;53.464;9.852;2022-09-12T06:43:47;4.35;;;2.83;;
50319;SDS011;36226;53.464;9.852;2022-09-12T06:46:12;5.38;;;4.35;;
50319;SDS011;36226;53.464;9.852;2022-09-12T06:48:37;9.40;;;4.53;;
50319;SDS011;36226;53.464;9.852;2022-09-12T06:51:04;8.10;;;4.03;;
50319;SDS011;36226;53.464;9.852;2022-09-12T06:53:34;6.55;;;4.20;;
50319;SDS011;36226;53.464;9.852;2022-09-12T06:56:05;5.32;;;4.15;;
50319;SDS011;36226;53.464;9.852;2022-09-12T06:58:32;7.28;;;5.40;;
50319;SDS011;36226;53.464;9.852;2022-09-12T07:01:01;6.45;;;4.82;;
50319;SDS011;36226;53.464;9.852;2022-09-12T07:03:28;5.28;;;4.00;;
50319;SDS011;36226;53.464;9.852;2022-09-12T07:05:54;5.90;;;5.00;;
50319;SDS011;36226;53.464;9.852;2022-09-12T07:08:19;8.00;;;6.60;;
50319;SDS011;36226;53.464;9.852;2022-09-12T07:10:45;8.68;;;6.50;;
50319;SDS011;36226;53.464;9.852;2022-09-12T07:13:10;8.95;;;6.43;;
50319;SDS011;36226;53.464;9.852;2022-09-12T07:15:35;10.05;;;7.15;;
50319;SDS011;36226;53.464;9.852;2022-09-12T07:18:01;15.55;;;8.88;;
50319;SDS011;36226;53.464;9.852;2022-09-12T07:20:27;14.93;;;8.10;;
50319;SDS011;36226;53.464;9.852;2022-09-12T07:22:53;12.80;;;8.05;;
50319;SDS011;36226;53.464;9.852;2022-09-12T07:25:18;13.93;;;8.60;;
50319;SDS011;36226;53.464;9.852;2022-09-12T07:27:44;9.10;;;6.53;;
50319;SDS011;36226;53.464;9.852;2022-09-12T07:30:09;10.80;;;6.60;;
50319;SDS011;36226;53.464;9.852;2022-09-12T07:32:35;6.97;;;5.70;;
50319;SDS011;36226;53.464;9.852;2022-09-12T07:35:00;7.25;;;5.97;;
50319;SDS011;36226;53.464;9.852;2022-09-12T07:37:28;6.22;;;5.47;;
50319;SDS011;36226;53.464;9.852;2022-09-12T07:39:55;6.85;;;5.20;;
50319;SDS011;36226;53.464;9.852;2022-09-12T07:42:20;6.72;;;4.82;;
50319;SDS011;36226;53.464;9.852;2022-09-12T07:44:45;5.60;;;4.55;;
50319;SDS011;36226;53.464;9.852;2022-09-12T07:47:11;5.82;;;4.93;;
50319;SDS011;36226;53.464;9.852;2022-09-12T07:49:36;4.95;;;4.32;;
50319;SDS011;36226;53.464;9.852;2022-09-12T07:52:01;4.43;;;4.03;;
50319;SDS011;36226;53.464;9.852;2022-09-12T07:54:27;4.00;;;3.55;;
50319;SDS011;36226;53.464;9.852;2022-09-12T07:56:52;4.20;;;3.80;;
50319;SDS011;36226;53.464;9.852;2022-09-12T07:59:17;4.05;;;3.65;;
50319;SDS011;36226;53.464;9.852;2022-09-12T08:01:43;4.22;;;3.72;;
50319;SDS011;36226;53.464;9.852;2022-09-12T08:04:08;5.00;;;3.60;;
50319;SDS011;36226;53.464;9.852;2022-09-12T08:06:33;3.60;;;2.05;;
50319;SDS011;36226;53.464;9.852;2022-09-12T08:09:00;4.20;;;2.85;;
50319;SDS011;36226;53.464;9.852;2022-09-12T08:11:26;2.35;;;2.10;;
50319;SDS011;36226;53.464;9.852;2022-09-12T08:13:52;2.88;;;1.90;;
50319;SDS011;36226;53.464;9.852;2022-09-12T08:16:20;2.70;;;1.83;;
50319;SDS011;36226;53.464;9.852;2022-09-12T08:18:46;3.42;;;1.70;;
50319;SDS011;36226;53.464;9.852;2022-09-12T08:21:13;3.58;;;1.55;;
50319;SDS011;36226;53.464;9.852;2022-09-12T08:23:43;3.72;;;1.48;;
50319;SDS011;36226;53.464;9.852;2022-09-12T08:26:09;1.42;;;1.33;;
50319;SDS011;36226;53.464;9.852;2022-09-12T08:28:36;1.33;;;1.23;;
50319;SDS011;36226;53.464;9.852;2022-09-12T08:31:09;1.90;;;1.30;;
50319;SDS011;36226;53.464;9.852;2022-09-12T08:33:39;1.45;;;1.25;;
50319;SDS011;36226;53.464;9.852;2022-09-12T08:36:11;1.83;;;1.35;;
50319;SDS011;36226;53.464;9.852;2022-09-12T08:38:39;1.23;;;1.10;;
50319;SDS011;36226;53.464;9.852;2022-09-12T08:46:28;2.58;;;1.10;;
50319;SDS011;36226;53.464;9.852;2022-09-12T08:48:57;1.35;;;0.80;;
50319;SDS011;36226;53.464;9.852;2022-09-12T08:51:24;1.33;;;0.80;;
50319;SDS011;36226;53.464;9.852;2022-09-12T08:53:50;1.40;;;0.80;;
50319;SDS011;36226;53.464;9.852;2022-09-12T08:56:18;1.08;;;0.90;;
50319;SDS011;36226;53.464;9.852;2022-09-12T08:58:44;1.00;;;0.75;;
50319;SDS011;36226;53.464;9.852;2022-09-12T09:11:44;1.58;;;0.63;;
50319;SDS011;36226;53.464;9.852;2022-09-12T09:17:19;1.35;;;0.60;;
50319;SDS011;36226;53.464;9.852;2022-09-12T09:19:50;0.68;;;0.52;;
50319;SDS011;36226;53.464;9.852;2022-09-12T09:23:06;1.95;;;0.80;;
50319;SDS011;36226;53.464;9.852;2022-09-12T09:25:12;0.70;;;0.70;;
50319;SDS011;36226;53.464;9.852;2022-09-12T09:27:43;1.98;;;0.80;;
50319;SDS011;36226;53.464;9.852;2022-09-12T09:30:16;1.38;;;0.52;;
50319;SDS011;36226;53.464;9.852;2022-09-12T09:32:43;1.90;;;1.10;;
50319;SDS011;36226;53.464;9.852;2022-09-12T09:37:43;0.80;;;0.80;;
50319;SDS011;36226;53.464;9.852;2022-09-12T09:40:20;4.53;;;0.90;;
50319;SDS011;36226;53.464;9.852;2022-09-12T09:45:23;1.58;;;0.70;;
50319;SDS011;36226;53.464;9.852;2022-09-12T09:50:36;1.55;;;0.90;;
50319;SDS011;36226;53.464;9.852;2022-09-12T09:53:02;3.88;;;0.90;;
50319;SDS011;36226;53.464;9.852;2022-09-12T09:55:29;1.10;;;0.90;;
50319;SDS011;36226;53.464;9.852;2022-09-12T09:57:58;2.60;;;0.77;;
50319;SDS011;36226;53.464;9.852;2022-09-12T10:00:25;7.13;;;1.05;;
50319;SDS011;36226;53.464;9.852;2022-09-12T10:05:48;1.08;;;1.00;;
50319;SDS011;36226;53.464;9.852;2022-09-12T10:13:58;3.63;;;1.00;;
50319;SDS011;36226;53.464;9.852;2022-09-12T10:16:28;1.42;;;0.95;;
50319;SDS011;36226;53.464;9.852;2022-09-12T10:18:55;2.70;;;1.00;;
50319;SDS011;36226;53.464;9.852;2022-09-12T10:24:03;1.30;;;1.20;;
50319;SDS011;36226;53.464;9.852;2022-09-12T10:26:37;8.20;;;1.33;;
50319;SDS011;36226;53.464;9.852;2022-09-12T10:29:05;1.77;;;1.20;;
50319;SDS011;36226;53.464;9.852;2022-09-12T10:31:40;1.40;;;1.20;;
50319;SDS011;36226;53.464;9.852;2022-09-12T10:34:14;1.20;;;0.90;;
50319;SDS011;36226;53.464;9.852;2022-09-12T10:36:45;8.00;;;1.33;;
50319;SDS011;36226;53.464;9.852;2022-09-12T10:39:11;1.77;;;1.00;;
50319;SDS011;36226;53.464;9.852;2022-09-12T10:41:42;2.72;;;1.30;;
50319;SDS011;36226;53.464;9.852;2022-09-12T10:44:13;1.92;;;1.00;;
50319;SDS011;36226;53.464;9.852;2022-09-12T10:46:40;2.25;;;1.17;;
50319;SDS011;36226;53.464;9.852;2022-09-12T10:49:19;2.63;;;1.10;;
50319;SDS011;36226;53.464;9.852;2022-09-12T10:51:46;1.30;;;0.98;;
50319;SDS011;36226;53.464;9.852;2022-09-12T10:54:13;3.13;;;1.20;;
50319;SDS011;36226;53.464;9.852;2022-09-12T11:04:59;1.73;;;1.40;;
50319;SDS011;36226;53.464;9.852;2022-09-12T11:07:48;3.30;;;1.80;;
50319;SDS011;36226;53.464;9.852;2022-09-12T11:10:27;1.92;;;1.70;;
50319;SDS011;36226;53.464;9.852;2022-09-12T11:15:37;2.10;;;1.60;;
50319;SDS011;36226;53.464;9.852;2022-09-12T11:26:59;2.25;;;1.65;;
50319;SDS011;36226;53.464;9.852;2022-09-12T11:29:48;1.65;;;1.40;;
50319;SDS011;36226;53.464;9.852;2022-09-12T11:35:24;2.33;;;1.77;;
50319;SDS011;36226;53.464;9.852;2022-09-12T11:45:54;2.78;;;1.67;;
50319;SDS011;36226;53.464;9.852;2022-09-12T11:50:55;2.73;;;1.77;;
50319;SDS011;36226;53.464;9.852;2022-09-12T11:53:23;5.18;;;1.52;;
50319;SDS011;36226;53.464;9.852;2022-09-12T11:58:23;1.85;;;1.73;;
50319;SDS011;36226;53.464;9.852;2022-09-12T12:00:50;1.60;;;1.20;;
50319;SDS011;36226;53.464;9.852;2022-09-12T12:08:42;1.50;;;1.30;;
50319;SDS011;36226;53.464;9.852;2022-09-12T12:11:09;1.85;;;1.27;;
50319;SDS011;36226;53.464;9.852;2022-09-12T12:13:35;2.45;;;1.30;;
50319;SDS011;36226;53.464;9.852;2022-09-12T12:16:11;2.45;;;1.60;;
50319;SDS011;36226;53.464;9.852;2022-09-12T12:18:40;1.50;;;1.40;;
50319;SDS011;36226;53.464;9.852;2022-09-12T12:29:52;2.03;;;1.75;;
50319;SDS011;36226;53.464;9.852;2022-09-12T12:36:58;1.90;;;1.52;;
50319;SDS011;36226;53.464;9.852;2022-09-12T12:47:38;2.83;;;2.00;;
50319;SDS011;36226;53.464;9.852;2022-09-12T12:52:45;5.03;;;2.00;;
50319;SDS011;36226;53.464;9.852;2022-09-12T12:55:14;3.95;;;2.38;;
50319;SDS011;36226;53.464;9.852;2022-09-12T12:57:49;3.55;;;2.33;;
50319;SDS011;36226;53.464;9.852;2022-09-12T13:03:09;2.80;;;2.10;;
50319;SDS011;36226;53.464;9.852;2022-09-12T13:05:57;3.33;;;2.15;;
50319;SDS011;36226;53.464;9.852;2022-09-12T13:08:27;3.13;;;2.22;;
50319;SDS011;36226;53.464;9.852;2022-09-12T13:11:25;3.05;;;2.40;;
50319;SDS011;36226;53.464;9.852;2022-09-12T13:13:56;2.65;;;2.10;;
50319;SDS011;36226;53.464;9.852;2022-09-12T13:16:58;3.35;;;2.10;;
50319;SDS011;36226;53.464;9.852;2022-09-12T13:19:29;5.45;;;2.85;;
50319;SDS011;36226;53.464;9.852;2022-09-12T13:21:59;2.97;;;2.42;;
50319;SDS011;36226;53.464;9.852;2022-09-12T13:24:28;4.05;;;2.47;;
50319;SDS011;36226;53.464;9.852;2022-09-12T13:26:54;6.03;;;2.67;;
50319;SDS011;36226;53.464;9.852;2022-09-12T13:29:22;4.72;;;2.28;;
50319;SDS011;36226;53.464;9.852;2022-09-12T13:31:56;2.42;;;2.00;;
50319;SDS011;36226;53.464;9.852;2022-09-12T13:34:23;4.90;;;2.00;;
50319;SDS011;36226;53.464;9.852;2022-09-12T13:44:47;4.95;;;2.20;;
50319;SDS011;36226;53.464;9.852;2022-09-12T13:47:30;3.25;;;2.25;;
50319;SDS011;36226;53.464;9.852;2022-09-12T13:50:00;4.93;;;2.70;;
50319;SDS011;36226;53.464;9.852;2022-09-12T13:52:28;2.08;;;1.75;;
50319;SDS011;36226;53.464;9.852;2022-09-12T13:54:56;3.70;;;2.10;;
50319;SDS011;36226;53.464;9.852;2022-09-12T13:57:30;2.88;;;1.85;;
50319;SDS011;36226;53.464;9.852;2022-09-12T13:59:58;3.55;;;2.22;;
50319;SDS011;36226;53.464;9.852;2022-09-12T14:02:26;3.25;;;2.20;;
50319;SDS011;36226;53.464;9.852;2022-09-12T14:04:53;3.80;;;2.53;;
50319;SDS011;36226;53.464;9.852;2022-09-12T14:07:33;4.30;;;1.95;;
50319;SDS011;36226;53.464;9.852;2022-09-12T14:10:12;4.57;;;2.03;;
50319;SDS011;36226;53.464;9.852;2022-09-12T14:12:40;3.42;;;2.20;;
50319;SDS011;36226;53.464;9.852;2022-09-12T14:15:24;3.30;;;2.10;;
50319;SDS011;36226;53.464;9.852;2022-09-12T14:17:53;3.03;;;2.10;;
50319;SDS011;36226;53.464;9.852;2022-09-12T14:20:20;3.80;;;2.60;;
50319;SDS011;36226;53.464;9.852;2022-09-12T14:22:47;4.00;;;2.20;;
50319;SDS011;36226;53.464;9.852;2022-09-12T14:25:14;3.17;;;2.53;;
50319;SDS011;36226;53.464;9.852;2022-09-12T14:27:51;4.70;;;2.55;;
50319;SDS011;36226;53.464;9.852;2022-09-12T14:32:43;2.85;;;2.30;;
50319;SDS011;36226;53.464;9.852;2022-09-12T14:35:47;4.45;;;2.28;;
50319;SDS011;36226;53.464;9.852;2022-09-12T14:43:14;3.40;;;2.45;;
50319;SDS011;36226;53.464;9.852;2022-09-12T14:45:42;3.58;;;2.80;;
50319;SDS011;36226;53.464;9.852;2022-09-12T14:48:12;3.00;;;2.25;;
50319;SDS011;36226;53.464;9.852;2022-09-12T14:50:42;4.30;;;2.40;;
50319;SDS011;36226;53.464;9.852;2022-09-12T14:55:45;3.83;;;2.40;;
50319;SDS011;36226;53.464;9.852;2022-09-12T15:03:48;3.13;;;2.40;;
50319;SDS011;36226;53.464;9.852;2022-09-12T15:06:20;5.25;;;2.42;;
50319;SDS011;36226;53.464;9.852;2022-09-12T15:08:47;3.42;;;2.15;;
50319;SDS011;36226;53.464;9.852;2022-09-12T15:11:13;5.63;;;2.58;;
50319;SDS011;36226;53.464;9.852;2022-09-12T15:13:39;3.08;;;2.30;;
50319;SDS011;36226;53.464;9.852;2022-09-12T15:16:09;4.93;;;2.35;;
50319;SDS011;36226;53.464;9.852;2022-09-12T15:18:35;3.25;;;2.35;;
50319;SDS011;36226;53.464;9.852;2022-09-12T15:21:01;2.72;;;2.38;;
50319;SDS011;36226;53.464;9.852;2022-09-12T15:23:29;3.72;;;2.63;;
50319;SDS011;36226;53.464;9.852;2022-09-12T15:25:56;4.60;;;2.60;;
50319;SDS011;36226;53.464;9.852;2022-09-12T15:28:21;4.20;;;2.72;;
50319;SDS011;36226;53.464;9.852;2022-09-12T15:30:48;3.78;;;2.60;;
50319;SDS011;36226;53.464;9.852;2022-09-12T15:33:15;5.47;;;2.20;;
50319;SDS011;36226;53.464;9.852;2022-09-12T15:35:42;2.58;;;2.38;;
50319;SDS011;36226;53.464;9.852;2022-09-12T15:38:07;5.90;;;2.63;;
50319;SDS011;36226;53.464;9.852;2022-09-12T15:40:32;2.65;;;2.30;;
50319;SDS011;36226;53.464;9.852;2022-09-12T15:42:58;2.83;;;2.30;;
50319;SDS011;36226;53.464;9.852;2022-09-12T15:45:28;2.83;;;2.35;;
50319;SDS011;36226;53.464;9.852;2022-09-12T15:47:55;2.40;;;2.20;;
50319;SDS011;36226;53.464;9.852;2022-09-12T15:50:20;4.75;;;2.55;;
50319;SDS011;36226;53.464;9.852;2022-09-12T15:52:46;3.38;;;2.60;;
50319;SDS011;36226;53.464;9.852;2022-09-12T15:55:14;3.53;;;1.98;;
50319;SDS011;36226;53.464;9.852;2022-09-12T15:57:42;2.28;;;2.08;;
50319;SDS011;36226;53.464;9.852;2022-09-12T16:00:08;2.55;;;2.22;;
50319;SDS011;36226;53.464;9.852;2022-09-12T16:02:34;2.85;;;2.40;;
50319;SDS011;36226;53.464;9.852;2022-09-12T16:04:59;4.35;;;2.55;;
50319;SDS011;36226;53.464;9.852;2022-09-12T16:07:24;2.58;;;2.35;;
50319;SDS011;36226;53.464;9.852;2022-09-12T16:09:50;4.28;;;2.63;;
50319;SDS011;36226;53.464;9.852;2022-09-12T16:12:15;4.00;;;2.90;;
50319;SDS011;36226;53.464;9.852;2022-09-12T16:14:40;3.53;;;2.40;;
50319;SDS011;36226;53.464;9.852;2022-09-12T16:17:06;2.83;;;2.50;;
50319;SDS011;36226;53.464;9.852;2022-09-12T16:19:32;3.90;;;2.42;;
50319;SDS011;36226;53.464;9.852;2022-09-12T16:21:57;2.35;;;2.15;;
50319;SDS011;36226;53.464;9.852;2022-09-12T16:24:22;2.92;;;2.58;;
50319;SDS011;36226;53.464;9.852;2022-09-12T16:26:48;2.70;;;2.50;;
50319;SDS011;36226;53.464;9.852;2022-09-12T16:29:13;3.35;;;2.80;;
50319;SDS011;36226;53.464;9.852;2022-09-12T16:31:38;2.65;;;2.42;;
50319;SDS011;36226;53.464;9.852;2022-09-12T16:34:04;3.42;;;2.35;;
50319;SDS011;36226;53.464;9.852;2022-09-12T16:36:30;3.38;;;2.40;;
50319;SDS011;36226;53.464;9.852;2022-09-12T16:38:55;6.72;;;2.63;;
50319;SDS011;36226;53.464;9.852;2022-09-12T16:41:21;4.25;;;2.72;;
50319;SDS011;36226;53.464;9.852;2022-09-12T16:43:49;4.15;;;2.80;;
50319;SDS011;36226;53.464;9.852;2022-09-12T16:46:19;3.05;;;2.33;;
50319;SDS011;36226;53.464;9.852;2022-09-12T16:48:49;3.28;;;2.97;;
50319;SDS011;36226;53.464;9.852;2022-09-12T16:51:16;4.72;;;3.30;;
50319;SDS011;36226;53.464;9.852;2022-09-12T16:53:46;4.57;;;3.00;;
50319;SDS011;36226;53.464;9.852;2022-09-12T16:56:15;3.35;;;2.72;;
50319;SDS011;36226;53.464;9.852;2022-09-12T16:58:43;3.03;;;2.58;;
50319;SDS011;36226;53.464;9.852;2022-09-12T17:01:10;5.45;;;3.35;;
50319;SDS011;36226;53.464;9.852;2022-09-12T17:03:39;3.95;;;2.70;;
50319;SDS011;36226;53.464;9.852;2022-09-12T17:06:10;5.97;;;3.00;;
50319;SDS011;36226;53.464;9.852;2022-09-12T17:08:37;4.25;;;2.83;;
50319;SDS011;36226;53.464;9.852;2022-09-12T17:11:05;3.28;;;2.55;;
50319;SDS011;36226;53.464;9.852;2022-09-12T17:13:31;3.70;;;2.75;;
50319;SDS011;36226;53.464;9.852;2022-09-12T17:15:59;3.47;;;2.75;;
50319;SDS011;36226;53.464;9.852;2022-09-12T17:18:29;3.35;;;2.65;;
50319;SDS011;36226;53.464;9.852;2022-09-12T17:20:54;3.10;;;2.80;;
50319;SDS011;36226;53.464;9.852;2022-09-12T17:23:19;3.70;;;2.70;;
50319;SDS011;36226;53.464;9.852;2022-09-12T17:25:48;3.53;;;2.70;;
50319;SDS011;36226;53.464;9.852;2022-09-12T17:28:19;3.55;;;3.13;;
50319;SDS011;36226;53.464;9.852;2022-09-12T17:30:52;3.33;;;3.03;;
50319;SDS011;36226;53.464;9.852;2022-09-12T17:33:19;4.05;;;3.17;;
50319;SDS011;36226;53.464;9.852;2022-09-12T17:35:44;3.92;;;3.28;;
50319;SDS011;36226;53.464;9.852;2022-09-12T17:38:10;3.97;;;3.20;;
50319;SDS011;36226;53.464;9.852;2022-09-12T17:40:35;3.65;;;3.35;;
50319;SDS011;36226;53.464;9.852;2022-09-12T17:43:01;4.40;;;3.40;;
50319;SDS011;36226;53.464;9.852;2022-09-12T17:45:26;4.68;;;3.30;;
50319;SDS011;36226;53.464;9.852;2022-09-12T17:47:52;3.55;;;2.92;;
50319;SDS011;36226;53.464;9.852;2022-09-12T17:50:18;3.40;;;3.10;;
50319;SDS011;36226;53.464;9.852;2022-09-12T17:52:43;4.30;;;2.90;;
50319;SDS011;36226;53.464;9.852;2022-09-12T17:55:09;4.20;;;2.80;;